LTBJ/ADB METAR and TAF weather

Enter ICAO airport designator
Station Type Date Time Source
LTBJ METAR 2023/12/04 19:20 UTC NOAA

LTBJ 041920Z VRB02KT 9999 SCT030 SCT110 13/13 Q1018 NOSIG


Station Type Date Time Source
LTBJ Decoded METAR 2023/12/04 19:20 UTC NOAA

Izmir / Adnan Menderes, Turkey (LTBJ) 38-16N 027-09E 120M
Dec 04, 2023 - 02:20 PM EST / 2023.12.04 1920 UTC
Wind: Variable at 2 MPH (2 KT):0
Visibility: greater than 7 mile(s):0
Sky conditions: partly cloudy
Temperature: 55 F (13 C)
Dew Point: 55 F (13 C)
Relative Humidity: 100%
Pressure (altimeter): 30.06 in. Hg (1018 hPa)
ob: LTBJ 041920Z VRB02KT 9999 SCT030 SCT110 13/13 Q1018 NOSIG
cycle: 19

Station Type Date Time Source
LTBJ TAF 2023/12/04 18:03 UTC NOAA

TAF LTBJ 041640Z 0418/0518 VRB02KT 9999 SCT030 BKN100 PROB30
TEMPO 0500/0504 36012KT -SHRA PROB30
TEMPO 0512/0516 36012KT -SHRA

Example: see airport list